sensor_id;sensor_type;location;lat;lon;timestamp;temperature;humidity
41547;DHT22;27271;45.412;10.852;2024-03-23T00:54:09;8.90;1.00
41547;DHT22;27271;45.412;10.852;2024-03-23T00:57:30;8.80;1.00
41547;DHT22;27271;45.412;10.852;2024-03-23T01:00:52;9.00;1.00
41547;DHT22;27271;45.412;10.852;2024-03-23T01:04:13;9.00;1.00
41547;DHT22;27271;45.412;10.852;2024-03-23T01:07:34;9.00;1.00
41547;DHT22;27271;45.412;10.852;2024-03-23T01:10:59;8.90;1.00
41547;DHT22;27271;45.412;10.852;2024-03-23T01:14:20;8.70;1.00
41547;DHT22;27271;45.412;10.852;2024-03-23T01:17:41;8.60;1.00
41547;DHT22;27271;45.412;10.852;2024-03-23T01:21:03;8.60;1.00
41547;DHT22;27271;45.412;10.852;2024-03-23T01:24:24;8.60;1.00
41547;DHT22;27271;45.412;10.852;2024-03-23T01:27:45;8.50;1.00
41547;DHT22;27271;45.412;10.852;2024-03-23T01:31:06;8.50;1.00
41547;DHT22;27271;45.412;10.852;2024-03-23T01:34:27;8.40;1.00
41547;DHT22;27271;45.412;10.852;2024-03-23T01:37:48;8.30;1.00
41547;DHT22;27271;45.412;10.852;2024-03-23T01:41:09;8.30;1.00
41547;DHT22;27271;45.412;10.852;2024-03-23T01:44:31;8.30;1.00
41547;DHT22;27271;45.412;10.852;2024-03-23T01:47:52;8.30;1.00
41547;DHT22;27271;45.412;10.852;2024-03-23T01:51:16;8.20;1.00
41547;DHT22;27271;45.412;10.852;2024-03-23T01:54:38;8.20;1.00
41547;DHT22;27271;45.412;10.852;2024-03-23T01:57:59;8.20;1.00
41547;DHT22;27271;45.412;10.852;2024-03-23T02:01:20;8.10;1.00
41547;DHT22;27271;45.412;10.852;2024-03-23T02:04:41;8.10;1.00
41547;DHT22;27271;45.412;10.852;2024-03-23T02:08:03;8.10;1.00
41547;DHT22;27271;45.412;10.852;2024-03-23T02:11:24;8.10;4.40
41547;DHT22;27271;45.412;10.852;2024-03-23T02:14:45;8.40;1.00
41547;DHT22;27271;45.412;10.852;2024-03-23T02:18:08;8.40;1.00
41547;DHT22;27271;45.412;10.852;2024-03-23T02:21:29;8.20;1.00
41547;DHT22;27271;45.412;10.852;2024-03-23T02:24:52;8.10;1.00
41547;DHT22;27271;45.412;10.852;2024-03-23T02:28:13;8.00;1.00
41547;DHT22;27271;45.412;10.852;2024-03-23T02:31:35;7.90;1.00
41547;DHT22;27271;45.412;10.852;2024-03-23T02:34:58;8.10;3.20
41547;DHT22;27271;45.412;10.852;2024-03-23T02:38:19;8.10;1.00
41547;DHT22;27271;45.412;10.852;2024-03-23T02:41:41;8.00;1.00
41547;DHT22;27271;45.412;10.852;2024-03-23T02:45:02;7.90;1.00
41547;DHT22;27271;45.412;10.852;2024-03-23T02:48:25;7.90;1.00
41547;DHT22;27271;45.412;10.852;2024-03-23T02:51:46;7.80;1.00
41547;DHT22;27271;45.412;10.852;2024-03-23T02:55:09;7.70;7.40
41547;DHT22;27271;45.412;10.852;2024-03-23T02:58:30;7.60;13.80
41547;DHT22;27271;45.412;10.852;2024-03-23T03:01:51;7.50;14.20
41547;DHT22;27271;45.412;10.852;2024-03-23T03:05:12;7.50;27.60
41547;DHT22;27271;45.412;10.852;2024-03-23T03:08:34;7.40;36.90
41547;DHT22;27271;45.412;10.852;2024-03-23T03:11:55;7.40;49.00
41547;DHT22;27271;45.412;10.852;2024-03-23T03:15:16;7.30;58.80
41547;DHT22;27271;45.412;10.852;2024-03-23T03:18:37;7.30;65.20
41547;DHT22;27271;45.412;10.852;2024-03-23T03:21:59;7.30;79.90
41547;DHT22;27271;45.412;10.852;2024-03-23T03:25:20;7.20;71.30
41547;DHT22;27271;45.412;10.852;2024-03-23T03:28:41;7.10;81.80
41547;DHT22;27271;45.412;10.852;2024-03-23T03:32:02;7.10;94.70
41547;DHT22;27271;45.412;10.852;2024-03-23T03:35:24;7.10;99.60
41547;DHT22;27271;45.412;10.852;2024-03-23T03:38:45;7.20;99.90
41547;DHT22;27271;45.412;10.852;2024-03-23T03:42:06;7.20;99.90
41547;DHT22;27271;45.412;10.852;2024-03-23T03:45:28;7.10;99.90
41547;DHT22;27271;45.412;10.852;2024-03-23T03:48:49;7.10;99.90
41547;DHT22;27271;45.412;10.852;2024-03-23T03:52:10;7.10;99.90
41547;DHT22;27271;45.412;10.852;2024-03-23T03:55:31;7.00;99.90
41547;DHT22;27271;45.412;10.852;2024-03-23T03:58:53;7.10;99.90
41547;DHT22;27271;45.412;10.852;2024-03-23T04:02:14;7.10;99.90
41547;DHT22;27271;45.412;10.852;2024-03-23T04:05:35;7.20;99.90
41547;DHT22;27271;45.412;10.852;2024-03-23T04:08:57;7.30;96.90
41547;DHT22;27271;45.412;10.852;2024-03-23T04:12:18;7.30;94.40
41547;DHT22;27271;45.412;10.852;2024-03-23T04:15:39;7.30;94.00
41547;DHT22;27271;45.412;10.852;2024-03-23T04:19:01;7.20;94.90
41547;DHT22;27271;45.412;10.852;2024-03-23T04:22:22;7.10;93.70
41547;DHT22;27271;45.412;10.852;2024-03-23T04:25:45;7.20;99.90
41547;DHT22;27271;45.412;10.852;2024-03-23T04:29:06;7.20;96.20
41547;DHT22;27271;45.412;10.852;2024-03-23T04:32:27;7.10;94.10
41547;DHT22;27271;45.412;10.852;2024-03-23T04:35:51;7.10;78.80
41547;DHT22;27271;45.412;10.852;2024-03-23T04:39:13;7.00;91.10
41547;DHT22;27271;45.412;10.852;2024-03-23T04:42:34;7.10;94.80
41547;DHT22;27271;45.412;10.852;2024-03-23T04:45:55;7.20;87.40
41547;DHT22;27271;45.412;10.852;2024-03-23T04:49:16;7.00;74.50
41547;DHT22;27271;45.412;10.852;2024-03-23T04:52:37;6.90;79.90
41547;DHT22;27271;45.412;10.852;2024-03-23T04:55:58;6.80;97.20
41547;DHT22;27271;45.412;10.852;2024-03-23T04:59:22;6.80;99.90
41547;DHT22;27271;45.412;10.852;2024-03-23T05:02:44;6.80;99.90
41547;DHT22;27271;45.412;10.852;2024-03-23T05:06:06;6.80;99.90
41547;DHT22;27271;45.412;10.852;2024-03-23T05:09:27;6.80;99.90
41547;DHT22;27271;45.412;10.852;2024-03-23T05:12:50;6.80;99.90
41547;DHT22;27271;45.412;10.852;2024-03-23T05:16:12;7.00;99.90
41547;DHT22;27271;45.412;10.852;2024-03-23T05:19:33;7.10;99.90
41547;DHT22;27271;45.412;10.852;2024-03-23T05:22:57;7.10;99.90
41547;DHT22;27271;45.412;10.852;2024-03-23T05:26:18;7.10;99.90
41547;DHT22;27271;45.412;10.852;2024-03-23T05:29:39;7.10;99.90
41547;DHT22;27271;45.412;10.852;2024-03-23T05:33:00;7.10;99.90
41547;DHT22;27271;45.412;10.852;2024-03-23T05:36:22;7.20;99.90
41547;DHT22;27271;45.412;10.852;2024-03-23T05:39:44;7.30;99.90
41547;DHT22;27271;45.412;10.852;2024-03-23T05:43:06;7.50;99.90
41547;DHT22;27271;45.412;10.852;2024-03-23T05:46:28;7.70;99.90
41547;DHT22;27271;45.412;10.852;2024-03-23T05:49:49;7.90;75.30
41547;DHT22;27271;45.412;10.852;2024-03-23T05:53:14;8.10;33.40
41547;DHT22;27271;45.412;10.852;2024-03-23T05:56:35;8.40;27.60
41547;DHT22;27271;45.412;10.852;2024-03-23T05:59:57;8.50;1.00
41547;DHT22;27271;45.412;10.852;2024-03-23T06:03:18;8.60;1.00
41547;DHT22;27271;45.412;10.852;2024-03-23T06:06:39;8.70;1.00
41547;DHT22;27271;45.412;10.852;2024-03-23T06:10:00;8.70;1.00
41547;DHT22;27271;45.412;10.852;2024-03-23T06:13:22;8.90;1.00
41547;DHT22;27271;45.412;10.852;2024-03-23T06:16:50;9.20;1.00
41547;DHT22;27271;45.412;10.852;2024-03-23T06:20:12;9.40;1.00
41547;DHT22;27271;45.412;10.852;2024-03-23T06:23:33;10.00;1.00
41547;DHT22;27271;45.412;10.852;2024-03-23T06:26:54;11.00;1.00
41547;DHT22;27271;45.412;10.852;2024-03-23T06:30:15;12.30;99.90
41547;DHT22;27271;45.412;10.852;2024-03-23T06:33:37;13.40;99.90
41547;DHT22;27271;45.412;10.852;2024-03-23T06:36:58;14.40;99.90
41547;DHT22;27271;45.412;10.852;2024-03-23T06:40:19;15.40;99.90
41547;DHT22;27271;45.412;10.852;2024-03-23T06:43:40;16.10;99.90
41547;DHT22;27271;45.412;10.852;2024-03-23T06:47:01;17.40;99.90
41547;DHT22;27271;45.412;10.852;2024-03-23T06:50:23;17.90;99.90
41547;DHT22;27271;45.412;10.852;2024-03-23T06:53:44;18.30;99.90
41547;DHT22;27271;45.412;10.852;2024-03-23T06:57:05;18.20;99.90
41547;DHT22;27271;45.412;10.852;2024-03-23T07:00:28;18.70;99.90
41547;DHT22;27271;45.412;10.852;2024-03-23T07:03:49;19.00;99.90
41547;DHT22;27271;45.412;10.852;2024-03-23T07:07:10;19.70;99.90
41547;DHT22;27271;45.412;10.852;2024-03-23T07:10:32;20.10;99.90
41547;DHT22;27271;45.412;10.852;2024-03-23T07:13:53;20.20;99.90
41547;DHT22;27271;45.412;10.852;2024-03-23T07:17:17;19.70;99.90
41547;DHT22;27271;45.412;10.852;2024-03-23T07:20:39;19.10;99.90
41547;DHT22;27271;45.412;10.852;2024-03-23T07:24:00;19.10;99.90
41547;DHT22;27271;45.412;10.852;2024-03-23T07:27:21;20.00;99.90
41547;DHT22;27271;45.412;10.852;2024-03-23T07:30:42;20.40;99.90
41547;DHT22;27271;45.412;10.852;2024-03-23T07:34:03;21.50;99.90
41547;DHT22;27271;45.412;10.852;2024-03-23T07:37:24;22.50;99.90
41547;DHT22;27271;45.412;10.852;2024-03-23T07:40:47;22.90;99.90
41547;DHT22;27271;45.412;10.852;2024-03-23T07:44:10;22.20;99.90
41547;DHT22;27271;45.412;10.852;2024-03-23T07:47:31;22.90;99.90
41547;DHT22;27271;45.412;10.852;2024-03-23T07:51:05;23.30;99.90
41547;DHT22;27271;45.412;10.852;2024-03-23T07:54:26;23.80;99.90
41547;DHT22;27271;45.412;10.852;2024-03-23T07:57:47;23.60;99.90
41547;DHT22;27271;45.412;10.852;2024-03-23T08:01:12;23.50;99.90
41547;DHT22;27271;45.412;10.852;2024-03-23T08:04:35;24.00;99.90
41547;DHT22;27271;45.412;10.852;2024-03-23T08:07:56;23.10;99.90
41547;DHT22;27271;45.412;10.852;2024-03-23T08:11:17;22.20;99.90
41547;DHT22;27271;45.412;10.852;2024-03-23T08:14:38;22.10;99.90
41547;DHT22;27271;45.412;10.852;2024-03-23T08:17:59;23.00;99.90
41547;DHT22;27271;45.412;10.852;2024-03-23T08:21:21;22.40;99.90
41547;DHT22;27271;45.412;10.852;2024-03-23T08:24:42;21.90;99.90
41547;DHT22;27271;45.412;10.852;2024-03-23T08:28:03;21.70;99.90
41547;DHT22;27271;45.412;10.852;2024-03-23T08:31:24;22.40;99.90
41547;DHT22;27271;45.412;10.852;2024-03-23T08:34:45;21.90;99.90
41547;DHT22;27271;45.412;10.852;2024-03-23T08:38:06;21.60;99.90
41547;DHT22;27271;45.412;10.852;2024-03-23T08:41:27;22.10;99.90
41547;DHT22;27271;45.412;10.852;2024-03-23T08:44:48;22.40;99.90
41547;DHT22;27271;45.412;10.852;2024-03-23T08:48:10;22.50;99.90
41547;DHT22;27271;45.412;10.852;2024-03-23T08:51:31;22.70;99.90
41547;DHT22;27271;45.412;10.852;2024-03-23T08:54:52;22.80;99.90
41547;DHT22;27271;45.412;10.852;2024-03-23T08:58:13;23.30;99.90
41547;DHT22;27271;45.412;10.852;2024-03-23T09:01:38;24.10;99.90
41547;DHT22;27271;45.412;10.852;2024-03-23T09:04:59;24.10;99.90
41547;DHT22;27271;45.412;10.852;2024-03-23T09:08:25;24.60;99.90
41547;DHT22;27271;45.412;10.852;2024-03-23T09:11:47;24.50;99.90
41547;DHT22;27271;45.412;10.852;2024-03-23T09:15:08;25.30;99.90
41547;DHT22;27271;45.412;10.852;2024-03-23T09:18:33;25.00;99.90
41547;DHT22;27271;45.412;10.852;2024-03-23T09:21:56;24.80;99.90
41547;DHT22;27271;45.412;10.852;2024-03-23T09:25:17;25.10;99.90
41547;DHT22;27271;45.412;10.852;2024-03-23T09:28:38;25.50;99.90
41547;DHT22;27271;45.412;10.852;2024-03-23T09:31:59;25.10;99.90
41547;DHT22;27271;45.412;10.852;2024-03-23T09:35:21;24.30;99.90
41547;DHT22;27271;45.412;10.852;2024-03-23T09:38:42;24.30;99.90
41547;DHT22;27271;45.412;10.852;2024-03-23T09:42:04;23.70;99.90
41547;DHT22;27271;45.412;10.852;2024-03-23T09:45:29;24.30;99.90
41547;DHT22;27271;45.412;10.852;2024-03-23T09:48:50;24.60;99.90
41547;DHT22;27271;45.412;10.852;2024-03-23T09:52:11;25.60;99.90
41547;DHT22;27271;45.412;10.852;2024-03-23T09:55:33;25.80;99.90
41547;DHT22;27271;45.412;10.852;2024-03-23T09:59:03;26.20;99.90
41547;DHT22;27271;45.412;10.852;2024-03-23T10:02:26;26.30;99.90
41547;DHT22;27271;45.412;10.852;2024-03-23T10:05:47;26.00;99.90
41547;DHT22;27271;45.412;10.852;2024-03-23T10:09:17;25.80;99.90
41547;DHT22;27271;45.412;10.852;2024-03-23T10:12:45;26.10;99.90
41547;DHT22;27271;45.412;10.852;2024-03-23T10:16:08;26.70;99.90
41547;DHT22;27271;45.412;10.852;2024-03-23T10:19:31;26.80;99.90
41547;DHT22;27271;45.412;10.852;2024-03-23T10:22:53;26.40;99.90
41547;DHT22;27271;45.412;10.852;2024-03-23T10:26:24;26.40;99.90
41547;DHT22;27271;45.412;10.852;2024-03-23T10:29:50;25.60;99.90
41547;DHT22;27271;45.412;10.852;2024-03-23T10:33:11;25.80;99.90
41547;DHT22;27271;45.412;10.852;2024-03-23T10:36:34;25.00;99.90
41547;DHT22;27271;45.412;10.852;2024-03-23T10:39:58;25.10;99.90
41547;DHT22;27271;45.412;10.852;2024-03-23T10:43:19;25.30;99.90
41547;DHT22;27271;45.412;10.852;2024-03-23T10:46:41;24.90;99.90
41547;DHT22;27271;45.412;10.852;2024-03-23T10:50:04;25.10;99.90
41547;DHT22;27271;45.412;10.852;2024-03-23T10:53:27;25.30;99.90
41547;DHT22;27271;45.412;10.852;2024-03-23T10:56:51;25.10;99.90
41547;DHT22;27271;45.412;10.852;2024-03-23T11:00:16;25.30;99.90
41547;DHT22;27271;45.412;10.852;2024-03-23T11:03:38;24.60;99.90
41547;DHT22;27271;45.412;10.852;2024-03-23T11:06:59;24.30;99.90
41547;DHT22;27271;45.412;10.852;2024-03-23T11:10:30;23.70;99.90
41547;DHT22;27271;45.412;10.852;2024-03-23T11:13:53;24.30;99.90
41547;DHT22;27271;45.412;10.852;2024-03-23T11:17:21;24.70;99.90
41547;DHT22;27271;45.412;10.852;2024-03-23T11:20:43;24.40;99.90
41547;DHT22;27271;45.412;10.852;2024-03-23T11:24:16;24.10;99.90
41547;DHT22;27271;45.412;10.852;2024-03-23T11:27:39;24.00;99.90
41547;DHT22;27271;45.412;10.852;2024-03-23T11:31:00;24.70;99.90
41547;DHT22;27271;45.412;10.852;2024-03-23T11:34:22;25.20;99.90
41547;DHT22;27271;45.412;10.852;2024-03-23T11:37:43;24.50;99.90
41547;DHT22;27271;45.412;10.852;2024-03-23T11:41:04;23.60;99.90
41547;DHT22;27271;45.412;10.852;2024-03-23T11:44:26;24.00;99.90
41547;DHT22;27271;45.412;10.852;2024-03-23T11:47:47;24.10;99.90
41547;DHT22;27271;45.412;10.852;2024-03-23T11:51:09;24.30;99.90
41547;DHT22;27271;45.412;10.852;2024-03-23T11:54:30;23.60;99.90
41547;DHT22;27271;45.412;10.852;2024-03-23T11:57:51;23.20;99.90
41547;DHT22;27271;45.412;10.852;2024-03-23T12:01:12;22.90;99.90
41547;DHT22;27271;45.412;10.852;2024-03-23T12:04:33;23.30;99.90
41547;DHT22;27271;45.412;10.852;2024-03-23T12:08:16;23.70;99.90
41547;DHT22;27271;45.412;10.852;2024-03-23T12:11:38;23.40;99.90
41547;DHT22;27271;45.412;10.852;2024-03-23T12:15:04;23.00;99.90
41547;DHT22;27271;45.412;10.852;2024-03-23T12:18:26;22.80;99.90
41547;DHT22;27271;45.412;10.852;2024-03-23T12:21:47;22.20;99.90
41547;DHT22;27271;45.412;10.852;2024-03-23T12:25:08;21.70;99.90
41547;DHT22;27271;45.412;10.852;2024-03-23T12:28:29;21.40;99.90
41547;DHT22;27271;45.412;10.852;2024-03-23T12:31:50;21.10;99.90
41547;DHT22;27271;45.412;10.852;2024-03-23T12:35:11;21.30;99.90
41547;DHT22;27271;45.412;10.852;2024-03-23T12:38:33;21.40;99.90
41547;DHT22;27271;45.412;10.852;2024-03-23T12:41:54;21.10;99.90
41547;DHT22;27271;45.412;10.852;2024-03-23T12:45:15;21.30;99.90
41547;DHT22;27271;45.412;10.852;2024-03-23T12:48:36;21.30;99.90
41547;DHT22;27271;45.412;10.852;2024-03-23T12:51:57;21.60;99.90
41547;DHT22;27271;45.412;10.852;2024-03-23T12:55:18;22.10;99.90
41547;DHT22;27271;45.412;10.852;2024-03-23T12:58:41;21.90;99.90
41547;DHT22;27271;45.412;10.852;2024-03-23T13:02:02;21.80;99.90
41547;DHT22;27271;45.412;10.852;2024-03-23T13:05:23;22.00;99.90
41547;DHT22;27271;45.412;10.852;2024-03-23T13:08:45;21.90;99.90
41547;DHT22;27271;45.412;10.852;2024-03-23T13:12:07;21.90;99.90
41547;DHT22;27271;45.412;10.852;2024-03-23T13:15:28;22.20;99.90
41547;DHT22;27271;45.412;10.852;2024-03-23T13:18:49;21.70;99.90
41547;DHT22;27271;45.412;10.852;2024-03-23T13:22:11;21.30;99.90
41547;DHT22;27271;45.412;10.852;2024-03-23T13:25:32;21.30;99.90
41547;DHT22;27271;45.412;10.852;2024-03-23T13:28:54;21.40;99.90
41547;DHT22;27271;45.412;10.852;2024-03-23T13:32:15;21.30;99.90
41547;DHT22;27271;45.412;10.852;2024-03-23T13:35:36;21.30;99.90
41547;DHT22;27271;45.412;10.852;2024-03-23T13:38:57;21.30;99.90
41547;DHT22;27271;45.412;10.852;2024-03-23T13:42:18;21.30;99.90
41547;DHT22;27271;45.412;10.852;2024-03-23T13:45:39;21.30;99.90
41547;DHT22;27271;45.412;10.852;2024-03-23T13:49:00;21.30;99.90
41547;DHT22;27271;45.412;10.852;2024-03-23T13:52:22;21.40;99.90
41547;DHT22;27271;45.412;10.852;2024-03-23T13:55:47;21.30;99.90
41547;DHT22;27271;45.412;10.852;2024-03-23T13:59:09;21.20;99.90
41547;DHT22;27271;45.412;10.852;2024-03-23T14:02:30;21.60;99.90
41547;DHT22;27271;45.412;10.852;2024-03-23T14:05:52;21.90;99.90
41547;DHT22;27271;45.412;10.852;2024-03-23T14:09:14;21.70;99.90
41547;DHT22;27271;45.412;10.852;2024-03-23T14:12:36;21.60;99.90
41547;DHT22;27271;45.412;10.852;2024-03-23T14:15:57;21.40;99.90
41547;DHT22;27271;45.412;10.852;2024-03-23T14:19:19;21.40;99.90
41547;DHT22;27271;45.412;10.852;2024-03-23T14:22:40;21.60;99.90
41547;DHT22;27271;45.412;10.852;2024-03-23T14:26:02;21.60;99.90
41547;DHT22;27271;45.412;10.852;2024-03-23T14:29:23;21.60;99.90
41547;DHT22;27271;45.412;10.852;2024-03-23T14:32:44;21.30;99.90
41547;DHT22;27271;45.412;10.852;2024-03-23T14:36:05;21.10;99.90
41547;DHT22;27271;45.412;10.852;2024-03-23T14:39:27;21.30;99.90
41547;DHT22;27271;45.412;10.852;2024-03-23T14:42:48;21.30;99.90
41547;DHT22;27271;45.412;10.852;2024-03-23T14:46:10;21.50;99.90
41547;DHT22;27271;45.412;10.852;2024-03-23T14:49:33;21.70;99.90
41547;DHT22;27271;45.412;10.852;2024-03-23T14:52:54;21.70;99.90
41547;DHT22;27271;45.412;10.852;2024-03-23T14:56:15;21.50;99.90
41547;DHT22;27271;45.412;10.852;2024-03-23T14:59:37;21.40;99.90
41547;DHT22;27271;45.412;10.852;2024-03-23T15:03:01;21.20;99.90
41547;DHT22;27271;45.412;10.852;2024-03-23T15:06:23;21.10;99.90
41547;DHT22;27271;45.412;10.852;2024-03-23T15:09:44;20.80;99.90
41547;DHT22;27271;45.412;10.852;2024-03-23T15:13:05;20.80;99.90
41547;DHT22;27271;45.412;10.852;2024-03-23T15:16:26;20.90;99.90
41547;DHT22;27271;45.412;10.852;2024-03-23T15:19:47;20.90;99.90
41547;DHT22;27271;45.412;10.852;2024-03-23T15:23:09;20.90;99.90
41547;DHT22;27271;45.412;10.852;2024-03-23T15:26:30;20.90;99.90
41547;DHT22;27271;45.412;10.852;2024-03-23T15:29:51;20.60;99.90
41547;DHT22;27271;45.412;10.852;2024-03-23T15:33:12;20.40;99.90
41547;DHT22;27271;45.412;10.852;2024-03-23T15:36:33;20.50;99.90
41547;DHT22;27271;45.412;10.852;2024-03-23T15:39:54;20.60;99.90
41547;DHT22;27271;45.412;10.852;2024-03-23T15:43:15;20.60;99.90
41547;DHT22;27271;45.412;10.852;2024-03-23T15:46:36;20.50;99.90
41547;DHT22;27271;45.412;10.852;2024-03-23T15:49:57;20.40;99.90
41547;DHT22;27271;45.412;10.852;2024-03-23T15:53:22;20.40;99.90
41547;DHT22;27271;45.412;10.852;2024-03-23T15:56:43;20.00;99.90
41547;DHT22;27271;45.412;10.852;2024-03-23T16:00:05;19.80;99.90
41547;DHT22;27271;45.412;10.852;2024-03-23T16:03:33;19.40;99.90
41547;DHT22;27271;45.412;10.852;2024-03-23T16:06:54;19.10;99.90
41547;DHT22;27271;45.412;10.852;2024-03-23T16:10:15;19.00;99.90
41547;DHT22;27271;45.412;10.852;2024-03-23T16:13:36;18.80;99.90
41547;DHT22;27271;45.412;10.852;2024-03-23T16:16:57;18.70;99.90
41547;DHT22;27271;45.412;10.852;2024-03-23T16:20:18;18.50;99.90
41547;DHT22;27271;45.412;10.852;2024-03-23T16:23:39;18.40;99.90
41547;DHT22;27271;45.412;10.852;2024-03-23T16:27:05;18.40;99.90
41547;DHT22;27271;45.412;10.852;2024-03-23T16:30:26;18.30;99.90
41547;DHT22;27271;45.412;10.852;2024-03-23T16:33:48;18.20;99.90
41547;DHT22;27271;45.412;10.852;2024-03-23T16:37:09;18.10;99.90
41547;DHT22;27271;45.412;10.852;2024-03-23T16:40:31;18.10;99.90
41547;DHT22;27271;45.412;10.852;2024-03-23T16:43:52;18.10;99.90
41547;DHT22;27271;45.412;10.852;2024-03-23T16:47:13;18.00;99.90
41547;DHT22;27271;45.412;10.852;2024-03-23T16:50:35;17.90;99.90
41547;DHT22;27271;45.412;10.852;2024-03-23T16:53:56;17.80;99.90
41547;DHT22;27271;45.412;10.852;2024-03-23T16:57:20;17.60;99.90
41547;DHT22;27271;45.412;10.852;2024-03-23T17:00:42;17.60;99.90
41547;DHT22;27271;45.412;10.852;2024-03-23T17:04:03;17.50;99.90
41547;DHT22;27271;45.412;10.852;2024-03-23T17:07:24;17.30;99.90
41547;DHT22;27271;45.412;10.852;2024-03-23T17:10:45;17.30;99.90
41547;DHT22;27271;45.412;10.852;2024-03-23T17:14:07;17.10;99.90
41547;DHT22;27271;45.412;10.852;2024-03-23T17:17:28;17.10;99.90
41547;DHT22;27271;45.412;10.852;2024-03-23T17:20:49;16.90;99.90
41547;DHT22;27271;45.412;10.852;2024-03-23T17:24:10;16.70;99.90
41547;DHT22;27271;45.412;10.852;2024-03-23T17:27:32;16.50;99.90
41547;DHT22;27271;45.412;10.852;2024-03-23T17:30:53;16.30;99.90
41547;DHT22;27271;45.412;10.852;2024-03-23T17:34:16;16.20;99.90
41547;DHT22;27271;45.412;10.852;2024-03-23T17:37:40;16.10;99.90
41547;DHT22;27271;45.412;10.852;2024-03-23T17:41:05;15.80;99.90
41547;DHT22;27271;45.412;10.852;2024-03-23T17:44:26;15.80;99.90
41547;DHT22;27271;45.412;10.852;2024-03-23T17:47:47;15.60;99.90
41547;DHT22;27271;45.412;10.852;2024-03-23T17:51:08;15.20;99.90
41547;DHT22;27271;45.412;10.852;2024-03-23T17:54:29;15.00;99.90
41547;DHT22;27271;45.412;10.852;2024-03-23T17:57:51;14.80;99.90
41547;DHT22;27271;45.412;10.852;2024-03-23T18:01:12;14.70;99.90
41547;DHT22;27271;45.412;10.852;2024-03-23T18:04:33;14.50;99.90
41547;DHT22;27271;45.412;10.852;2024-03-23T18:07:55;14.40;99.90
41547;DHT22;27271;45.412;10.852;2024-03-23T18:11:16;14.20;99.90
41547;DHT22;27271;45.412;10.852;2024-03-23T18:14:37;14.20;99.90
41547;DHT22;27271;45.412;10.852;2024-03-23T18:17:58;14.10;99.90
41547;DHT22;27271;45.412;10.852;2024-03-23T18:21:21;14.10;99.90
41547;DHT22;27271;45.412;10.852;2024-03-23T18:24:42;13.90;99.90
41547;DHT22;27271;45.412;10.852;2024-03-23T18:28:03;13.80;99.90
41547;DHT22;27271;45.412;10.852;2024-03-23T18:31:25;13.70;99.90
41547;DHT22;27271;45.412;10.852;2024-03-23T18:34:46;13.80;99.90
41547;DHT22;27271;45.412;10.852;2024-03-23T18:38:07;13.80;99.90
41547;DHT22;27271;45.412;10.852;2024-03-23T18:41:29;13.90;99.90
41547;DHT22;27271;45.412;10.852;2024-03-23T18:44:51;13.70;99.90
41547;DHT22;27271;45.412;10.852;2024-03-23T18:48:12;13.60;99.90
41547;DHT22;27271;45.412;10.852;2024-03-23T18:51:33;13.70;99.90
41547;DHT22;27271;45.412;10.852;2024-03-23T18:54:55;13.50;1.00
41547;DHT22;27271;45.412;10.852;2024-03-23T18:58:20;13.40;1.00
41547;DHT22;27271;45.412;10.852;2024-03-23T19:01:41;13.30;1.00
41547;DHT22;27271;45.412;10.852;2024-03-23T19:05:02;13.20;1.00
41547;DHT22;27271;45.412;10.852;2024-03-23T19:08:24;13.10;1.00
41547;DHT22;27271;45.412;10.852;2024-03-23T19:11:45;13.00;1.00
41547;DHT22;27271;45.412;10.852;2024-03-23T19:15:09;13.00;1.00
41547;DHT22;27271;45.412;10.852;2024-03-23T19:18:33;13.00;1.00
41547;DHT22;27271;45.412;10.852;2024-03-23T19:21:55;13.00;1.00
41547;DHT22;27271;45.412;10.852;2024-03-23T19:25:16;12.90;1.00
41547;DHT22;27271;45.412;10.852;2024-03-23T19:28:38;12.80;1.00
41547;DHT22;27271;45.412;10.852;2024-03-23T19:31:59;12.70;1.00
41547;DHT22;27271;45.412;10.852;2024-03-23T19:35:20;12.70;1.00
41547;DHT22;27271;45.412;10.852;2024-03-23T19:38:41;12.60;1.00
41547;DHT22;27271;45.412;10.852;2024-03-23T19:42:03;12.50;1.00
41547;DHT22;27271;45.412;10.852;2024-03-23T19:45:24;12.50;1.00
41547;DHT22;27271;45.412;10.852;2024-03-23T19:48:45;12.50;1.00
41547;DHT22;27271;45.412;10.852;2024-03-23T19:52:06;12.40;1.00
41547;DHT22;27271;45.412;10.852;2024-03-23T19:55:28;12.30;1.00
41547;DHT22;27271;45.412;10.852;2024-03-23T19:58:49;12.40;1.00
41547;DHT22;27271;45.412;10.852;2024-03-23T20:02:10;12.30;1.00
41547;DHT22;27271;45.412;10.852;2024-03-23T20:05:32;12.40;1.00
41547;DHT22;27271;45.412;10.852;2024-03-23T20:08:53;12.30;1.00
41547;DHT22;27271;45.412;10.852;2024-03-23T20:12:14;12.30;1.00
41547;DHT22;27271;45.412;10.852;2024-03-23T20:15:36;12.20;1.00
41547;DHT22;27271;45.412;10.852;2024-03-23T20:18:57;12.10;1.00
41547;DHT22;27271;45.412;10.852;2024-03-23T20:22:18;12.00;1.00
41547;DHT22;27271;45.412;10.852;2024-03-23T20:25:39;12.00;1.00
41547;DHT22;27271;45.412;10.852;2024-03-23T20:29:01;12.00;1.00
41547;DHT22;27271;45.412;10.852;2024-03-23T20:32:22;11.90;1.00
41547;DHT22;27271;45.412;10.852;2024-03-23T20:35:49;12.00;1.00
41547;DHT22;27271;45.412;10.852;2024-03-23T20:39:11;12.00;1.00
41547;DHT22;27271;45.412;10.852;2024-03-23T20:42:32;11.80;1.00
41547;DHT22;27271;45.412;10.852;2024-03-23T20:46:02;11.70;1.00
41547;DHT22;27271;45.412;10.852;2024-03-23T20:49:24;11.80;1.00
41547;DHT22;27271;45.412;10.852;2024-03-23T20:52:46;11.70;1.00
41547;DHT22;27271;45.412;10.852;2024-03-23T20:56:08;11.60;1.00
41547;DHT22;27271;45.412;10.852;2024-03-23T20:59:32;11.50;1.00
41547;DHT22;27271;45.412;10.852;2024-03-23T21:02:53;11.50;1.00
41547;DHT22;27271;45.412;10.852;2024-03-23T21:06:14;11.50;1.00
41547;DHT22;27271;45.412;10.852;2024-03-23T21:09:35;11.70;1.00
41547;DHT22;27271;45.412;10.852;2024-03-23T21:12:56;11.80;1.00
41547;DHT22;27271;45.412;10.852;2024-03-23T21:16:17;11.90;1.00
41547;DHT22;27271;45.412;10.852;2024-03-23T21:19:38;12.00;1.00
41547;DHT22;27271;45.412;10.852;2024-03-23T21:23:00;11.90;1.00
41547;DHT22;27271;45.412;10.852;2024-03-23T21:26:21;11.80;1.00
41547;DHT22;27271;45.412;10.852;2024-03-23T21:29:42;11.70;1.00
41547;DHT22;27271;45.412;10.852;2024-03-23T21:33:03;11.70;1.00
41547;DHT22;27271;45.412;10.852;2024-03-23T21:36:25;11.60;1.00
41547;DHT22;27271;45.412;10.852;2024-03-23T21:39:46;11.40;1.00
41547;DHT22;27271;45.412;10.852;2024-03-23T21:43:07;11.10;1.00
41547;DHT22;27271;45.412;10.852;2024-03-23T21:46:28;10.80;1.00
41547;DHT22;27271;45.412;10.852;2024-03-23T21:49:49;10.70;6.40
41547;DHT22;27271;45.412;10.852;2024-03-23T21:53:10;10.50;16.80
41547;DHT22;27271;45.412;10.852;2024-03-23T21:56:31;10.40;54.10